Wheelwright, Kentucky
Current Conditions -  °F | °C
As of 3:35 AM on Thursday 18 Dec 2014 (Local Time) from KPBX Reporting Station
Overcast Overcast  
Wind Chill: 23°   Ceiling: 1300
Heat Index: 29°   Visibility: 10mi
Dew Point: 24°   Wind: 6mph
Humidity: 82%   Direction: 310°NW
Pressure: 30.22"   Gusts: NA
Location:  37.33°N, 82.72°W
Report Text: KPBX 180835Z AUTO 31005KT 10SM OVC013 M02/M04 A3022 RMK AO2 T10161043
Loading
Personal Weather Stations






























Interactive Weather Map New forecast layout! Learn more

10-Day Weather Forecast

Advertisements
Track Severe Weather on mobile